sensor_id;sensor_type;location;lat;lon;timestamp;temperature;humidity
33988;DHT22;37428;53.580;-1.666;2023-09-18T00:02:48;16.30;99.90
33988;DHT22;37428;53.580;-1.666;2023-09-18T00:05:54;16.40;99.90
33988;DHT22;37428;53.580;-1.666;2023-09-18T00:08:56;16.40;99.90
33988;DHT22;37428;53.580;-1.666;2023-09-18T00:11:58;16.50;99.90
33988;DHT22;37428;53.580;-1.666;2023-09-18T00:15:00;16.50;99.90
33988;DHT22;37428;53.580;-1.666;2023-09-18T00:18:03;16.50;99.90
33988;DHT22;37428;53.580;-1.666;2023-09-18T00:21:07;16.50;99.90
33988;DHT22;37428;53.580;-1.666;2023-09-18T00:24:11;16.50;99.90
33988;DHT22;37428;53.580;-1.666;2023-09-18T00:27:13;16.40;99.90
33988;DHT22;37428;53.580;-1.666;2023-09-18T00:30:16;16.40;99.90
33988;DHT22;37428;53.580;-1.666;2023-09-18T00:33:20;16.40;99.90
33988;DHT22;37428;53.580;-1.666;2023-09-18T00:36:23;16.40;99.90
33988;DHT22;37428;53.580;-1.666;2023-09-18T00:39:26;16.40;99.90
33988;DHT22;37428;53.580;-1.666;2023-09-18T00:42:28;16.40;99.90
33988;DHT22;37428;53.580;-1.666;2023-09-18T00:45:30;16.40;99.90
33988;DHT22;37428;53.580;-1.666;2023-09-18T00:48:32;16.40;99.90
33988;DHT22;37428;53.580;-1.666;2023-09-18T00:51:36;16.40;99.90
33988;DHT22;37428;53.580;-1.666;2023-09-18T00:54:39;16.40;99.90
33988;DHT22;37428;53.580;-1.666;2023-09-18T00:57:42;16.50;99.90
33988;DHT22;37428;53.580;-1.666;2023-09-18T01:00:44;16.50;99.90
33988;DHT22;37428;53.580;-1.666;2023-09-18T01:03:47;16.50;99.90
33988;DHT22;37428;53.580;-1.666;2023-09-18T01:06:50;16.50;99.90
33988;DHT22;37428;53.580;-1.666;2023-09-18T01:09:53;16.50;99.90
33988;DHT22;37428;53.580;-1.666;2023-09-18T01:13:02;16.50;99.90
33988;DHT22;37428;53.580;-1.666;2023-09-18T01:16:10;16.50;99.90
33988;DHT22;37428;53.580;-1.666;2023-09-18T01:19:16;16.60;99.90
33988;DHT22;37428;53.580;-1.666;2023-09-18T01:22:20;16.60;99.90
33988;DHT22;37428;53.580;-1.666;2023-09-18T01:25:24;16.60;99.90
33988;DHT22;37428;53.580;-1.666;2023-09-18T01:28:26;16.60;99.90
33988;DHT22;37428;53.580;-1.666;2023-09-18T01:31:29;16.50;99.90
33988;DHT22;37428;53.580;-1.666;2023-09-18T01:34:33;16.50;99.90
33988;DHT22;37428;53.580;-1.666;2023-09-18T01:37:37;16.50;99.90
33988;DHT22;37428;53.580;-1.666;2023-09-18T01:40:43;16.50;99.90
33988;DHT22;37428;53.580;-1.666;2023-09-18T01:43:45;16.60;99.90
33988;DHT22;37428;53.580;-1.666;2023-09-18T01:46:48;16.60;99.90
33988;DHT22;37428;53.580;-1.666;2023-09-18T01:49:53;16.60;99.90
33988;DHT22;37428;53.580;-1.666;2023-09-18T01:52:56;16.60;99.90
33988;DHT22;37428;53.580;-1.666;2023-09-18T01:56:00;16.60;99.90
33988;DHT22;37428;53.580;-1.666;2023-09-18T01:59:02;16.60;99.90
33988;DHT22;37428;53.580;-1.666;2023-09-18T02:02:05;16.50;99.90
33988;DHT22;37428;53.580;-1.666;2023-09-18T02:05:10;16.50;99.90
33988;DHT22;37428;53.580;-1.666;2023-09-18T02:08:12;16.50;99.90
33988;DHT22;37428;53.580;-1.666;2023-09-18T02:11:15;16.40;99.90
33988;DHT22;37428;53.580;-1.666;2023-09-18T02:14:18;16.40;99.90
33988;DHT22;37428;53.580;-1.666;2023-09-18T02:17:20;16.40;99.90
33988;DHT22;37428;53.580;-1.666;2023-09-18T02:20:22;16.30;99.90
33988;DHT22;37428;53.580;-1.666;2023-09-18T02:23:24;16.30;99.90
33988;DHT22;37428;53.580;-1.666;2023-09-18T02:26:28;16.30;99.90
33988;DHT22;37428;53.580;-1.666;2023-09-18T02:29:30;16.30;99.90
33988;DHT22;37428;53.580;-1.666;2023-09-18T02:32:32;16.30;99.90
33988;DHT22;37428;53.580;-1.666;2023-09-18T02:35:35;16.40;99.90
33988;DHT22;37428;53.580;-1.666;2023-09-18T02:38:39;16.30;99.90
33988;DHT22;37428;53.580;-1.666;2023-09-18T02:41:43;16.30;99.90
33988;DHT22;37428;53.580;-1.666;2023-09-18T02:44:45;16.30;99.90
33988;DHT22;37428;53.580;-1.666;2023-09-18T02:47:47;16.30;99.90
33988;DHT22;37428;53.580;-1.666;2023-09-18T02:50:49;16.30;99.90
33988;DHT22;37428;53.580;-1.666;2023-09-18T02:53:55;16.40;99.90
33988;DHT22;37428;53.580;-1.666;2023-09-18T02:57:01;16.40;99.90
33988;DHT22;37428;53.580;-1.666;2023-09-18T03:00:03;16.40;99.90
33988;DHT22;37428;53.580;-1.666;2023-09-18T03:03:06;16.40;99.90
33988;DHT22;37428;53.580;-1.666;2023-09-18T03:06:08;16.40;99.90
33988;DHT22;37428;53.580;-1.666;2023-09-18T03:09:10;16.40;99.90
33988;DHT22;37428;53.580;-1.666;2023-09-18T03:12:14;16.40;99.90
33988;DHT22;37428;53.580;-1.666;2023-09-18T03:15:16;16.40;99.90
33988;DHT22;37428;53.580;-1.666;2023-09-18T03:18:18;16.50;99.90
33988;DHT22;37428;53.580;-1.666;2023-09-18T03:21:20;16.50;99.90
33988;DHT22;37428;53.580;-1.666;2023-09-18T03:24:22;16.50;99.90
33988;DHT22;37428;53.580;-1.666;2023-09-18T03:27:26;16.60;99.90
33988;DHT22;37428;53.580;-1.666;2023-09-18T03:30:31;16.50;99.90
33988;DHT22;37428;53.580;-1.666;2023-09-18T03:33:33;16.50;99.90
33988;DHT22;37428;53.580;-1.666;2023-09-18T03:36:35;16.60;99.90
33988;DHT22;37428;53.580;-1.666;2023-09-18T03:39:39;16.50;99.90
33988;DHT22;37428;53.580;-1.666;2023-09-18T03:42:43;16.50;99.90
33988;DHT22;37428;53.580;-1.666;2023-09-18T03:45:45;16.50;99.90
33988;DHT22;37428;53.580;-1.666;2023-09-18T03:48:47;16.50;99.90
33988;DHT22;37428;53.580;-1.666;2023-09-18T03:51:50;16.50;99.90
33988;DHT22;37428;53.580;-1.666;2023-09-18T03:54:52;16.50;99.90
33988;DHT22;37428;53.580;-1.666;2023-09-18T03:57:55;16.50;99.90
33988;DHT22;37428;53.580;-1.666;2023-09-18T04:00:57;16.50;99.90
33988;DHT22;37428;53.580;-1.666;2023-09-18T04:04:00;16.50;99.90
33988;DHT22;37428;53.580;-1.666;2023-09-18T04:07:08;16.50;99.90
33988;DHT22;37428;53.580;-1.666;2023-09-18T04:10:10;16.50;99.90
33988;DHT22;37428;53.580;-1.666;2023-09-18T04:13:20;16.40;99.90
33988;DHT22;37428;53.580;-1.666;2023-09-18T04:16:22;16.40;99.90
33988;DHT22;37428;53.580;-1.666;2023-09-18T04:19:24;16.40;99.90
33988;DHT22;37428;53.580;-1.666;2023-09-18T04:22:26;16.40;99.90
33988;DHT22;37428;53.580;-1.666;2023-09-18T04:25:28;16.30;99.90
33988;DHT22;37428;53.580;-1.666;2023-09-18T04:28:33;16.30;99.90
33988;DHT22;37428;53.580;-1.666;2023-09-18T04:31:35;16.30;99.90
33988;DHT22;37428;53.580;-1.666;2023-09-18T04:34:38;16.30;99.90
33988;DHT22;37428;53.580;-1.666;2023-09-18T04:37:40;16.30;99.90
33988;DHT22;37428;53.580;-1.666;2023-09-18T04:40:42;16.30;99.90
33988;DHT22;37428;53.580;-1.666;2023-09-18T04:43:47;16.20;99.90
33988;DHT22;37428;53.580;-1.666;2023-09-18T04:46:49;16.30;99.90
33988;DHT22;37428;53.580;-1.666;2023-09-18T04:49:52;16.20;99.90
33988;DHT22;37428;53.580;-1.666;2023-09-18T04:52:54;16.20;99.90
33988;DHT22;37428;53.580;-1.666;2023-09-18T04:55:58;16.20;99.90
33988;DHT22;37428;53.580;-1.666;2023-09-18T04:59:03;16.20;99.90
33988;DHT22;37428;53.580;-1.666;2023-09-18T05:02:05;16.20;99.90
33988;DHT22;37428;53.580;-1.666;2023-09-18T05:05:08;16.20;99.90
33988;DHT22;37428;53.580;-1.666;2023-09-18T05:08:10;16.10;99.90
33988;DHT22;37428;53.580;-1.666;2023-09-18T05:11:12;16.10;99.90
33988;DHT22;37428;53.580;-1.666;2023-09-18T05:14:17;16.10;99.90
33988;DHT22;37428;53.580;-1.666;2023-09-18T05:17:21;16.10;99.90
33988;DHT22;37428;53.580;-1.666;2023-09-18T05:20:41;16.10;99.90
33988;DHT22;37428;53.580;-1.666;2023-09-18T05:23:43;16.10;99.90
33988;DHT22;37428;53.580;-1.666;2023-09-18T05:26:45;16.10;99.90
33988;DHT22;37428;53.580;-1.666;2023-09-18T05:29:49;16.10;99.90
33988;DHT22;37428;53.580;-1.666;2023-09-18T05:32:51;16.10;99.90
33988;DHT22;37428;53.580;-1.666;2023-09-18T05:35:53;16.10;99.90
33988;DHT22;37428;53.580;-1.666;2023-09-18T05:38:55;16.10;99.90
33988;DHT22;37428;53.580;-1.666;2023-09-18T05:41:57;16.10;99.90
33988;DHT22;37428;53.580;-1.666;2023-09-18T05:45:01;16.10;99.90
33988;DHT22;37428;53.580;-1.666;2023-09-18T05:48:05;16.10;99.90
33988;DHT22;37428;53.580;-1.666;2023-09-18T05:51:08;16.10;99.90
33988;DHT22;37428;53.580;-1.666;2023-09-18T05:54:10;16.00;99.90
33988;DHT22;37428;53.580;-1.666;2023-09-18T05:57:12;16.00;99.90
33988;DHT22;37428;53.580;-1.666;2023-09-18T06:00:16;16.00;99.90
33988;DHT22;37428;53.580;-1.666;2023-09-18T06:03:18;16.00;99.90
33988;DHT22;37428;53.580;-1.666;2023-09-18T06:06:21;16.00;99.90
33988;DHT22;37428;53.580;-1.666;2023-09-18T06:09:23;16.00;99.90
33988;DHT22;37428;53.580;-1.666;2023-09-18T06:12:25;15.90;99.90
33988;DHT22;37428;53.580;-1.666;2023-09-18T06:15:29;16.00;99.90
33988;DHT22;37428;53.580;-1.666;2023-09-18T06:18:31;15.90;99.90
33988;DHT22;37428;53.580;-1.666;2023-09-18T06:21:33;15.90;99.90
33988;DHT22;37428;53.580;-1.666;2023-09-18T06:24:35;15.90;99.90
33988;DHT22;37428;53.580;-1.666;2023-09-18T06:27:38;15.90;99.90
33988;DHT22;37428;53.580;-1.666;2023-09-18T06:30:41;15.80;99.90
33988;DHT22;37428;53.580;-1.666;2023-09-18T06:33:43;15.90;99.90
33988;DHT22;37428;53.580;-1.666;2023-09-18T06:36:46;15.80;99.90
33988;DHT22;37428;53.580;-1.666;2023-09-18T06:39:48;15.80;99.50
33988;DHT22;37428;53.580;-1.666;2023-09-18T06:42:50;15.70;98.60
33988;DHT22;37428;53.580;-1.666;2023-09-18T06:45:53;15.70;97.90
33988;DHT22;37428;53.580;-1.666;2023-09-18T06:48:58;15.60;97.40
33988;DHT22;37428;53.580;-1.666;2023-09-18T06:52:01;15.60;97.20
33988;DHT22;37428;53.580;-1.666;2023-09-18T06:55:04;15.50;97.40
33988;DHT22;37428;53.580;-1.666;2023-09-18T06:58:07;15.50;97.70
33988;DHT22;37428;53.580;-1.666;2023-09-18T07:01:10;15.50;97.10
33988;DHT22;37428;53.580;-1.666;2023-09-18T07:04:13;15.40;96.90
33988;DHT22;37428;53.580;-1.666;2023-09-18T07:07:15;15.50;96.70
33988;DHT22;37428;53.580;-1.666;2023-09-18T07:10:17;15.40;96.00
33988;DHT22;37428;53.580;-1.666;2023-09-18T07:13:19;15.40;95.40
33988;DHT22;37428;53.580;-1.666;2023-09-18T07:16:23;15.50;94.30
33988;DHT22;37428;53.580;-1.666;2023-09-18T07:19:25;15.50;93.90
33988;DHT22;37428;53.580;-1.666;2023-09-18T07:22:27;15.50;93.30
33988;DHT22;37428;53.580;-1.666;2023-09-18T07:25:29;15.50;93.30
33988;DHT22;37428;53.580;-1.666;2023-09-18T07:28:31;15.60;92.90
33988;DHT22;37428;53.580;-1.666;2023-09-18T07:31:35;15.60;93.10
33988;DHT22;37428;53.580;-1.666;2023-09-18T07:34:37;15.60;92.30
33988;DHT22;37428;53.580;-1.666;2023-09-18T07:37:40;15.70;92.10
33988;DHT22;37428;53.580;-1.666;2023-09-18T07:40:45;15.70;91.10
33988;DHT22;37428;53.580;-1.666;2023-09-18T07:43:47;15.80;90.20
33988;DHT22;37428;53.580;-1.666;2023-09-18T07:46:51;15.80;90.50
33988;DHT22;37428;53.580;-1.666;2023-09-18T07:49:56;16.00;89.90
33988;DHT22;37428;53.580;-1.666;2023-09-18T07:53:00;16.10;89.20
33988;DHT22;37428;53.580;-1.666;2023-09-18T07:56:03;16.00;88.70
33988;DHT22;37428;53.580;-1.666;2023-09-18T07:59:05;16.00;88.50
33988;DHT22;37428;53.580;-1.666;2023-09-18T08:02:09;16.30;87.80
33988;DHT22;37428;53.580;-1.666;2023-09-18T08:05:12;16.60;87.10
33988;DHT22;37428;53.580;-1.666;2023-09-18T08:08:15;16.70;86.40
33988;DHT22;37428;53.580;-1.666;2023-09-18T08:11:18;16.90;84.70
33988;DHT22;37428;53.580;-1.666;2023-09-18T08:14:20;17.10;84.30
33988;DHT22;37428;53.580;-1.666;2023-09-18T08:17:24;17.20;83.70
33988;DHT22;37428;53.580;-1.666;2023-09-18T08:20:26;17.60;83.10
33988;DHT22;37428;53.580;-1.666;2023-09-18T08:23:29;17.90;82.30
33988;DHT22;37428;53.580;-1.666;2023-09-18T08:26:32;18.00;81.10
33988;DHT22;37428;53.580;-1.666;2023-09-18T08:29:35;17.90;80.00
33988;DHT22;37428;53.580;-1.666;2023-09-18T08:32:38;17.80;81.90
33988;DHT22;37428;53.580;-1.666;2023-09-18T08:35:40;17.80;80.60
33988;DHT22;37428;53.580;-1.666;2023-09-18T08:38:43;17.90;81.50
33988;DHT22;37428;53.580;-1.666;2023-09-18T08:41:49;18.10;80.60
33988;DHT22;37428;53.580;-1.666;2023-09-18T08:44:57;18.40;79.70
33988;DHT22;37428;53.580;-1.666;2023-09-18T08:48:02;18.70;79.30
33988;DHT22;37428;53.580;-1.666;2023-09-18T08:51:05;19.00;77.50
33988;DHT22;37428;53.580;-1.666;2023-09-18T08:54:08;19.30;76.00
33988;DHT22;37428;53.580;-1.666;2023-09-18T08:57:11;19.60;76.10
33988;DHT22;37428;53.580;-1.666;2023-09-18T09:00:14;19.80;74.80
33988;DHT22;37428;53.580;-1.666;2023-09-18T09:03:19;19.90;73.00
33988;DHT22;37428;53.580;-1.666;2023-09-18T09:06:21;19.80;73.60
33988;DHT22;37428;53.580;-1.666;2023-09-18T09:09:23;19.60;73.30
33988;DHT22;37428;53.580;-1.666;2023-09-18T09:12:49;19.50;73.30
33988;DHT22;37428;53.580;-1.666;2023-09-18T09:15:53;19.30;75.20
33988;DHT22;37428;53.580;-1.666;2023-09-18T09:18:57;19.00;75.00
33988;DHT22;37428;53.580;-1.666;2023-09-18T09:22:00;18.90;75.90
33988;DHT22;37428;53.580;-1.666;2023-09-18T09:25:03;18.80;76.30
33988;DHT22;37428;53.580;-1.666;2023-09-18T09:28:06;18.80;77.50
33988;DHT22;37428;53.580;-1.666;2023-09-18T09:31:08;18.70;77.50
33988;DHT22;37428;53.580;-1.666;2023-09-18T09:34:12;18.90;77.30
33988;DHT22;37428;53.580;-1.666;2023-09-18T09:37:14;19.10;76.20
33988;DHT22;37428;53.580;-1.666;2023-09-18T09:40:19;19.30;76.10
33988;DHT22;37428;53.580;-1.666;2023-09-18T09:43:22;19.40;74.70
33988;DHT22;37428;53.580;-1.666;2023-09-18T09:46:24;19.30;75.10
33988;DHT22;37428;53.580;-1.666;2023-09-18T09:49:28;19.30;74.90
33988;DHT22;37428;53.580;-1.666;2023-09-18T09:52:33;19.20;75.80
33988;DHT22;37428;53.580;-1.666;2023-09-18T09:55:36;19.20;78.60
33988;DHT22;37428;53.580;-1.666;2023-09-18T09:58:39;19.00;78.10
33988;DHT22;37428;53.580;-1.666;2023-09-18T10:01:46;18.60;79.40
33988;DHT22;37428;53.580;-1.666;2023-09-18T10:04:51;18.40;81.20
33988;DHT22;37428;53.580;-1.666;2023-09-18T10:07:54;18.20;83.30
33988;DHT22;37428;53.580;-1.666;2023-09-18T10:11:05;18.00;85.20
33988;DHT22;37428;53.580;-1.666;2023-09-18T10:14:13;17.80;85.90
33988;DHT22;37428;53.580;-1.666;2023-09-18T10:17:18;17.50;85.40
33988;DHT22;37428;53.580;-1.666;2023-09-18T10:20:24;17.40;86.10
33988;DHT22;37428;53.580;-1.666;2023-09-18T10:23:34;17.20;86.50
33988;DHT22;37428;53.580;-1.666;2023-09-18T10:26:44;16.90;87.40
33988;DHT22;37428;53.580;-1.666;2023-09-18T10:29:49;16.80;88.40
33988;DHT22;37428;53.580;-1.666;2023-09-18T10:32:53;16.60;89.50
33988;DHT22;37428;53.580;-1.666;2023-09-18T10:35:57;16.50;90.30
33988;DHT22;37428;53.580;-1.666;2023-09-18T10:39:02;16.30;90.10
33988;DHT22;37428;53.580;-1.666;2023-09-18T10:42:09;16.10;90.80
33988;DHT22;37428;53.580;-1.666;2023-09-18T10:45:11;15.80;91.20
33988;DHT22;37428;53.580;-1.666;2023-09-18T10:48:18;15.60;91.80
33988;DHT22;37428;53.580;-1.666;2023-09-18T10:51:22;15.40;92.60
33988;DHT22;37428;53.580;-1.666;2023-09-18T10:54:26;15.20;92.70
33988;DHT22;37428;53.580;-1.666;2023-09-18T10:57:33;15.10;93.50
33988;DHT22;37428;53.580;-1.666;2023-09-18T11:00:36;15.00;94.90
33988;DHT22;37428;53.580;-1.666;2023-09-18T11:03:38;14.90;94.70
33988;DHT22;37428;53.580;-1.666;2023-09-18T11:07:05;14.90;94.70
33988;DHT22;37428;53.580;-1.666;2023-09-18T11:10:27;14.90;94.80
33988;DHT22;37428;53.580;-1.666;2023-09-18T11:13:30;14.70;93.90
33988;DHT22;37428;53.580;-1.666;2023-09-18T11:16:36;14.70;94.60
33988;DHT22;37428;53.580;-1.666;2023-09-18T11:19:41;14.60;94.30
33988;DHT22;37428;53.580;-1.666;2023-09-18T11:22:48;14.50;92.40
33988;DHT22;37428;53.580;-1.666;2023-09-18T11:25:52;14.50;91.80
33988;DHT22;37428;53.580;-1.666;2023-09-18T11:28:56;14.40;91.70
33988;DHT22;37428;53.580;-1.666;2023-09-18T11:32:00;14.30;91.60
33988;DHT22;37428;53.580;-1.666;2023-09-18T11:35:07;14.40;91.00
33988;DHT22;37428;53.580;-1.666;2023-09-18T11:38:12;14.40;89.80
33988;DHT22;37428;53.580;-1.666;2023-09-18T11:41:23;14.40;89.80
33988;DHT22;37428;53.580;-1.666;2023-09-18T11:44:33;14.40;88.10
33988;DHT22;37428;53.580;-1.666;2023-09-18T11:47:37;14.30;88.00
33988;DHT22;37428;53.580;-1.666;2023-09-18T11:50:43;14.30;88.10
33988;DHT22;37428;53.580;-1.666;2023-09-18T11:53:47;14.20;88.20
33988;DHT22;37428;53.580;-1.666;2023-09-18T11:56:51;14.10;89.40
33988;DHT22;37428;53.580;-1.666;2023-09-18T11:59:53;14.20;89.40
33988;DHT22;37428;53.580;-1.666;2023-09-18T12:02:57;14.20;89.90
33988;DHT22;37428;53.580;-1.666;2023-09-18T12:06:01;14.10;91.10
33988;DHT22;37428;53.580;-1.666;2023-09-18T12:09:07;14.10;91.20
33988;DHT22;37428;53.580;-1.666;2023-09-18T12:12:11;14.20;91.30
33988;DHT22;37428;53.580;-1.666;2023-09-18T12:15:17;14.20;91.60
33988;DHT22;37428;53.580;-1.666;2023-09-18T12:18:20;14.30;90.40
33988;DHT22;37428;53.580;-1.666;2023-09-18T12:21:23;14.30;91.10
33988;DHT22;37428;53.580;-1.666;2023-09-18T12:24:27;14.40;91.40
33988;DHT22;37428;53.580;-1.666;2023-09-18T12:27:29;14.50;90.90
33988;DHT22;37428;53.580;-1.666;2023-09-18T12:30:33;14.60;91.10
33988;DHT22;37428;53.580;-1.666;2023-09-18T12:33:35;14.70;91.10
33988;DHT22;37428;53.580;-1.666;2023-09-18T12:36:41;14.90;91.40
33988;DHT22;37428;53.580;-1.666;2023-09-18T12:39:46;15.10;90.80
33988;DHT22;37428;53.580;-1.666;2023-09-18T12:42:48;15.40;90.60
33988;DHT22;37428;53.580;-1.666;2023-09-18T12:45:54;15.60;89.60
33988;DHT22;37428;53.580;-1.666;2023-09-18T12:48:56;15.70;89.00
33988;DHT22;37428;53.580;-1.666;2023-09-18T12:51:59;15.80;88.80
33988;DHT22;37428;53.580;-1.666;2023-09-18T12:55:04;15.90;88.00
33988;DHT22;37428;53.580;-1.666;2023-09-18T12:58:09;15.80;85.60
33988;DHT22;37428;53.580;-1.666;2023-09-18T13:01:12;15.90;88.70
33988;DHT22;37428;53.580;-1.666;2023-09-18T13:04:14;16.30;89.10
33988;DHT22;37428;53.580;-1.666;2023-09-18T13:07:16;16.60;90.00
33988;DHT22;37428;53.580;-1.666;2023-09-18T13:10:20;16.60;89.40
33988;DHT22;37428;53.580;-1.666;2023-09-18T13:13:23;16.60;89.30
33988;DHT22;37428;53.580;-1.666;2023-09-18T13:16:26;16.40;89.20
33988;DHT22;37428;53.580;-1.666;2023-09-18T13:19:30;16.30;89.80
33988;DHT22;37428;53.580;-1.666;2023-09-18T13:22:32;16.00;91.10
33988;DHT22;37428;53.580;-1.666;2023-09-18T13:25:37;15.70;91.80
33988;DHT22;37428;53.580;-1.666;2023-09-18T13:28:40;15.40;91.70
33988;DHT22;37428;53.580;-1.666;2023-09-18T13:31:43;15.40;93.00
33988;DHT22;37428;53.580;-1.666;2023-09-18T13:34:45;16.00;92.40
33988;DHT22;37428;53.580;-1.666;2023-09-18T13:37:48;16.20;91.70
33988;DHT22;37428;53.580;-1.666;2023-09-18T13:40:51;16.20;86.30
33988;DHT22;37428;53.580;-1.666;2023-09-18T13:43:57;16.10;88.10
33988;DHT22;37428;53.580;-1.666;2023-09-18T13:46:59;16.30;88.10
33988;DHT22;37428;53.580;-1.666;2023-09-18T13:50:03;16.20;84.90
33988;DHT22;37428;53.580;-1.666;2023-09-18T13:53:06;16.00;83.60
33988;DHT22;37428;53.580;-1.666;2023-09-18T13:56:10;15.80;84.60
33988;DHT22;37428;53.580;-1.666;2023-09-18T13:59:12;15.70;84.80
33988;DHT22;37428;53.580;-1.666;2023-09-18T14:02:14;15.70;86.20
33988;DHT22;37428;53.580;-1.666;2023-09-18T14:05:17;15.70;85.90
33988;DHT22;37428;53.580;-1.666;2023-09-18T14:08:20;16.10;86.00
33988;DHT22;37428;53.580;-1.666;2023-09-18T14:11:24;16.40;84.10
33988;DHT22;37428;53.580;-1.666;2023-09-18T14:14:26;16.70;81.10
33988;DHT22;37428;53.580;-1.666;2023-09-18T14:17:28;16.90;79.10
33988;DHT22;37428;53.580;-1.666;2023-09-18T14:20:30;16.90;75.70
33988;DHT22;37428;53.580;-1.666;2023-09-18T14:23:32;17.10;76.70
33988;DHT22;37428;53.580;-1.666;2023-09-18T14:26:37;16.60;76.60
33988;DHT22;37428;53.580;-1.666;2023-09-18T14:29:42;16.30;76.30
33988;DHT22;37428;53.580;-1.666;2023-09-18T14:32:44;16.30;77.00
33988;DHT22;37428;53.580;-1.666;2023-09-18T14:35:46;16.60;77.40
33988;DHT22;37428;53.580;-1.666;2023-09-18T14:38:48;16.70;74.30
33988;DHT22;37428;53.580;-1.666;2023-09-18T14:41:52;16.60;73.30
33988;DHT22;37428;53.580;-1.666;2023-09-18T14:44:54;16.70;72.80
33988;DHT22;37428;53.580;-1.666;2023-09-18T14:47:56;16.70;72.20
33988;DHT22;37428;53.580;-1.666;2023-09-18T14:50:59;16.90;70.10
33988;DHT22;37428;53.580;-1.666;2023-09-18T14:54:01;17.00;69.30
33988;DHT22;37428;53.580;-1.666;2023-09-18T14:57:06;16.90;65.20
33988;DHT22;37428;53.580;-1.666;2023-09-18T15:00:09;16.90;65.20
33988;DHT22;37428;53.580;-1.666;2023-09-18T15:03:13;16.90;64.70
33988;DHT22;37428;53.580;-1.666;2023-09-18T15:06:15;17.00;64.90
33988;DHT22;37428;53.580;-1.666;2023-09-18T15:09:17;16.90;63.60
33988;DHT22;37428;53.580;-1.666;2023-09-18T15:12:21;16.70;64.40
33988;DHT22;37428;53.580;-1.666;2023-09-18T15:15:23;16.80;64.50
33988;DHT22;37428;53.580;-1.666;2023-09-18T15:18:25;16.90;65.20
33988;DHT22;37428;53.580;-1.666;2023-09-18T15:21:27;16.90;67.10
33988;DHT22;37428;53.580;-1.666;2023-09-18T15:24:30;16.80;64.60
33988;DHT22;37428;53.580;-1.666;2023-09-18T15:27:34;16.60;62.90
33988;DHT22;37428;53.580;-1.666;2023-09-18T15:30:36;16.30;66.10
33988;DHT22;37428;53.580;-1.666;2023-09-18T15:33:38;16.00;64.10
33988;DHT22;37428;53.580;-1.666;2023-09-18T15:36:41;15.70;65.60
33988;DHT22;37428;53.580;-1.666;2023-09-18T15:39:43;15.40;64.60
33988;DHT22;37428;53.580;-1.666;2023-09-18T15:42:49;15.30;66.20
33988;DHT22;37428;53.580;-1.666;2023-09-18T15:45:51;15.40;67.10
33988;DHT22;37428;53.580;-1.666;2023-09-18T15:48:53;15.70;67.10
33988;DHT22;37428;53.580;-1.666;2023-09-18T15:51:57;15.90;67.20
33988;DHT22;37428;53.580;-1.666;2023-09-18T15:54:59;16.00;67.20
33988;DHT22;37428;53.580;-1.666;2023-09-18T15:58:03;16.20;66.30
33988;DHT22;37428;53.580;-1.666;2023-09-18T16:01:05;16.10;63.90
33988;DHT22;37428;53.580;-1.666;2023-09-18T16:04:09;15.80;61.90
33988;DHT22;37428;53.580;-1.666;2023-09-18T16:07:11;15.40;64.40
33988;DHT22;37428;53.580;-1.666;2023-09-18T16:10:14;15.30;64.90
33988;DHT22;37428;53.580;-1.666;2023-09-18T16:13:19;15.10;65.00
33988;DHT22;37428;53.580;-1.666;2023-09-18T16:16:21;15.00;65.50
33988;DHT22;37428;53.580;-1.666;2023-09-18T16:19:23;14.80;64.90
33988;DHT22;37428;53.580;-1.666;2023-09-18T16:22:25;14.80;66.20
33988;DHT22;37428;53.580;-1.666;2023-09-18T16:25:28;14.70;67.40
33988;DHT22;37428;53.580;-1.666;2023-09-18T16:28:31;14.70;67.70
33988;DHT22;37428;53.580;-1.666;2023-09-18T16:31:33;14.50;67.50
33988;DHT22;37428;53.580;-1.666;2023-09-18T16:34:36;14.30;68.10
33988;DHT22;37428;53.580;-1.666;2023-09-18T16:37:56;14.30;71.30
33988;DHT22;37428;53.580;-1.666;2023-09-18T16:40:58;14.10;74.20
33988;DHT22;37428;53.580;-1.666;2023-09-18T16:44:02;14.00;74.70
33988;DHT22;37428;53.580;-1.666;2023-09-18T16:47:05;14.00;75.40
33988;DHT22;37428;53.580;-1.666;2023-09-18T16:50:08;13.90;75.30
33988;DHT22;37428;53.580;-1.666;2023-09-18T16:53:10;13.80;75.80
33988;DHT22;37428;53.580;-1.666;2023-09-18T16:56:12;13.60;76.10
33988;DHT22;37428;53.580;-1.666;2023-09-18T16:59:16;13.40;76.90
33988;DHT22;37428;53.580;-1.666;2023-09-18T17:02:20;13.40;76.50
33988;DHT22;37428;53.580;-1.666;2023-09-18T17:05:22;13.30;76.60
33988;DHT22;37428;53.580;-1.666;2023-09-18T17:08:25;13.30;77.70
33988;DHT22;37428;53.580;-1.666;2023-09-18T17:11:27;13.40;78.60
33988;DHT22;37428;53.580;-1.666;2023-09-18T17:14:31;13.40;78.90
33988;DHT22;37428;53.580;-1.666;2023-09-18T17:17:33;13.40;78.70
33988;DHT22;37428;53.580;-1.666;2023-09-18T17:20:35;13.50;80.20
33988;DHT22;37428;53.580;-1.666;2023-09-18T17:23:38;13.50;80.00
33988;DHT22;37428;53.580;-1.666;2023-09-18T17:26:40;13.50;80.30
33988;DHT22;37428;53.580;-1.666;2023-09-18T17:29:44;13.40;79.30
33988;DHT22;37428;53.580;-1.666;2023-09-18T17:32:46;13.40;79.50
33988;DHT22;37428;53.580;-1.666;2023-09-18T17:35:48;13.50;80.10
33988;DHT22;37428;53.580;-1.666;2023-09-18T17:38:51;13.50;79.50
33988;DHT22;37428;53.580;-1.666;2023-09-18T17:41:53;13.50;79.30
33988;DHT22;37428;53.580;-1.666;2023-09-18T17:44:57;13.50;79.30
33988;DHT22;37428;53.580;-1.666;2023-09-18T17:47:59;13.50;79.20
33988;DHT22;37428;53.580;-1.666;2023-09-18T17:51:01;13.50;76.00
33988;DHT22;37428;53.580;-1.666;2023-09-18T17:54:04;13.40;76.20
33988;DHT22;37428;53.580;-1.666;2023-09-18T17:57:08;13.40;75.70
33988;DHT22;37428;53.580;-1.666;2023-09-18T18:00:13;13.40;75.20
33988;DHT22;37428;53.580;-1.666;2023-09-18T18:03:16;13.30;73.40
33988;DHT22;37428;53.580;-1.666;2023-09-18T18:06:18;13.20;73.00
33988;DHT22;37428;53.580;-1.666;2023-09-18T18:09:20;13.00;75.40
33988;DHT22;37428;53.580;-1.666;2023-09-18T18:12:23;12.80;75.00
33988;DHT22;37428;53.580;-1.666;2023-09-18T18:15:26;12.60;72.10
33988;DHT22;37428;53.580;-1.666;2023-09-18T18:18:28;12.50;73.20
33988;DHT22;37428;53.580;-1.666;2023-09-18T18:21:30;12.50;73.50
33988;DHT22;37428;53.580;-1.666;2023-09-18T18:24:34;12.40;74.50
33988;DHT22;37428;53.580;-1.666;2023-09-18T18:27:36;12.40;74.20
33988;DHT22;37428;53.580;-1.666;2023-09-18T18:30:40;12.40;74.50
33988;DHT22;37428;53.580;-1.666;2023-09-18T18:33:42;12.40;75.40
33988;DHT22;37428;53.580;-1.666;2023-09-18T18:36:44;12.50;75.60
33988;DHT22;37428;53.580;-1.666;2023-09-18T18:39:46;12.50;76.20
33988;DHT22;37428;53.580;-1.666;2023-09-18T18:42:49;12.40;77.20
33988;DHT22;37428;53.580;-1.666;2023-09-18T18:45:53;12.50;78.10
33988;DHT22;37428;53.580;-1.666;2023-09-18T18:48:57;12.50;78.90
33988;DHT22;37428;53.580;-1.666;2023-09-18T18:51:59;12.50;79.00
33988;DHT22;37428;53.580;-1.666;2023-09-18T18:55:01;12.50;79.70
33988;DHT22;37428;53.580;-1.666;2023-09-18T18:58:04;12.50;79.60
33988;DHT22;37428;53.580;-1.666;2023-09-18T19:01:08;12.50;80.30